Time;durP1;ratioP1;P1;durP2;ratioP2;P2;SDS_P1;SDS_P2;PMS_P1;PMS_P2;Temp;Humidity;BMP_temperature;BMP_pressure;BME280_temperature;BME280_humidity;BME280_pressure;Samples;Min_cycle;Max_cycle;Signal;HPM_P1;HPM_P2
2021/03/27 00:00:57;;;;;;;17.90;13.00;;;;;;;21.67;33.17;100073.83;1749175;80;21184;-16
2021/03/27 00:04:06;;;;;;;18.25;12.80;;;;;;;21.67;33.16;100072.48;1765393;80;21208;-15
2021/03/27 00:06:48;;;;;;;16.60;12.88;;;;;;;21.68;33.13;100070.19;1761161;80;21212;-15
2021/03/27 00:09:27;;;;;;;17.87;12.37;;;;;;;21.69;33.08;100066.06;1763130;80;21216;-15
2021/03/27 00:12:07;;;;;;;19.32;12.37;;;;;;;21.70;33.04;100062.44;1761016;80;21131;-16
2021/03/27 00:14:43;;;;;;;16.57;12.55;;;;;;;21.72;33.07;100058.31;1763897;80;21668;-15
2021/03/27 00:17:18;;;;;;;21.02;13.15;;;;;;;21.71;33.08;100052.08;1704986;82;21199;-16
2021/03/27 00:19:56;;;;;;;15.70;11.93;;;;;;;21.75;33.02;100059.40;1747997;80;21165;-16
2021/03/27 00:22:50;;;;;;;19.98;12.30;;;;;;;21.76;33.04;100057.11;1764534;80;21185;-16
2021/03/27 00:25:31;;;;;;;17.67;12.10;;;;;;;21.78;33.01;100059.19;1764889;80;21580;-16
2021/03/27 00:28:28;;;;;;;14.33;11.73;;;;;;;21.79;33.00;100058.23;1767890;80;21232;-15
2021/03/27 00:31:13;;;;;;;17.07;12.43;;;;;;;21.79;32.99;100056.89;1766331;80;21141;-15
2021/03/27 00:33:50;;;;;;;15.28;12.18;;;;;;;21.80;33.03;100057.23;1758590;80;21152;-16
2021/03/27 00:36:28;;;;;;;19.30;12.25;;;;;;;21.80;33.03;100057.23;1739938;80;21102;-15
2021/03/27 00:39:16;;;;;;;14.40;11.65;;;;;;;21.80;33.04;100059.92;1762498;80;21207;-17
2021/03/27 00:42:00;;;;;;;17.37;11.63;;;;;;;21.81;33.05;100055.44;1681599;82;21223;-15
2021/03/27 00:44:30;;;;;;;;;;;;;;;21.81;33.08;100060.30;1768478;80;21193;-15
2021/03/27 00:46:59;;;;;;;14.93;10.60;;;;;;;21.82;33.08;100062.03;1762171;80;22133;-14
2021/03/27 00:49:41;;;;;;;14.60;11.12;;;;;;;21.83;33.06;100056.17;1740246;80;21168;-14
2021/03/27 00:52:11;;;;;;;20.77;11.40;;;;;;;21.84;33.04;100061.42;1761950;80;21596;-15
2021/03/27 00:54:46;;;;;;;14.40;11.20;;;;;;;21.86;33.03;100059.48;1749054;80;21204;-15
2021/03/27 00:57:33;;;;;;;16.57;11.43;;;;;;;21.88;33.03;100060.22;1760596;80;21581;-15
2021/03/27 01:00:30;;;;;;;14.60;11.12;;;;;;;21.89;33.03;100061.94;1749443;80;21133;-15
2021/03/27 01:03:29;;;;;;;13.95;10.80;;;;;;;21.95;33.06;100055.27;1815352;78;22773;-16
2021/03/27 01:06:21;;;;;;;16.62;10.72;;;;;;;21.93;33.02;100063.06;1788213;79;21132;-15
2021/03/27 01:09:08;;;;;;;16.05;11.40;;;;;;;21.95;33.00;100059.78;1782478;79;22263;-15
2021/03/27 01:11:46;;;;;;;13.05;10.40;;;;;;;21.96;32.99;100062.84;1796838;79;21623;-15
2021/03/27 01:14:23;;;;;;;12.95;10.63;;;;;;;21.98;32.99;100063.58;1782959;79;21098;-15
2021/03/27 01:16:54;;;;;;;14.28;10.30;;;;;;;21.99;33.01;100059.45;1784252;79;21093;-15
2021/03/27 01:19:38;;;;;;;12.47;10.15;;;;;;;21.99;33.02;100065.27;1790682;78;21075;-15
2021/03/27 01:22:07;;;;;;;15.70;10.85;;;;;;;22.00;33.01;100060.30;1787312;79;21557;-15
2021/03/27 01:24:35;;;;;;;15.32;10.63;;;;;;;22.00;33.00;100061.63;1766971;79;21172;-15
2021/03/27 01:27:15;;;;;;;19.77;11.03;;;;;;;22.01;32.96;100062.86;1785229;78;21171;-15
2021/03/27 01:29:58;;;;;;;16.62;11.03;;;;;;;22.04;32.97;100064.45;1788725;79;21140;-18
2021/03/27 01:32:39;;;;;;;13.93;10.18;;;;;;;22.05;33.02;100056.79;1784352;79;21552;-15
2021/03/27 01:35:20;;;;;;;12.90;10.28;;;;;;;22.06;33.00;100059.85;1761785;79;21570;-15
2021/03/27 01:37:53;;;;;;;13.40;10.60;;;;;;;22.09;32.97;100067.67;1790962;79;21911;-15
2021/03/27 01:40:50;;;;;;;12.15;10.38;;;;;;;22.10;32.96;100068.52;1792068;79;21109;-15
2021/03/27 01:43:37;;;;;;;13.75;10.38;;;;;;;22.10;32.97;100062.66;1797376;78;21109;-15
2021/03/27 01:47:00;;;;;;;13.05;9.80;;;;;;;22.11;33.01;100063.50;1773558;79;21687;-15
2021/03/27 01:49:49;;;;;;;18.27;10.32;;;;;;;22.11;33.07;100060.36;1789870;79;22012;-15
2021/03/27 01:52:55;;;;;;;13.80;9.90;;;;;;;22.12;33.09;100061.21;1767638;79;21132;-15
2021/03/27 01:55:50;;;;;;;13.38;9.88;;;;;;;22.12;33.13;100063.39;1780622;79;21196;-14
2021/03/27 01:58:32;;;;;;;12.80;10.35;;;;;;;22.12;33.16;100064.73;1732667;79;21084;-16
2021/03/27 02:01:22;;;;;;;12.03;9.35;;;;;;;22.12;33.27;100065.23;1791345;79;21548;-16
2021/03/27 02:03:56;;;;;;;15.93;10.70;;;;;;;22.12;33.30;100067.41;1788768;79;21409;-15
2021/03/27 02:06:41;;;;;;;12.33;10.45;;;;;;;22.11;33.37;100068.41;1791148;79;21144;-15
2021/03/27 02:09:29;;;;;;;18.70;9.90;;;;;;;22.10;33.40;100065.34;1788311;79;27986;-14
2021/03/27 02:12:22;;;;;;;13.70;9.78;;;;;;;22.10;33.40;100066.68;1696561;80;21235;-14
2021/03/27 02:14:56;;;;;;;11.53;9.27;;;;;;;22.11;33.40;100065.72;1783942;79;21060;-14
2021/03/27 02:17:52;;;;;;;12.98;9.80;;;;;;;22.13;33.40;100071.81;1784258;79;21227;-15
2021/03/27 02:20:28;;;;;;;;;;;;;;;22.14;33.35;100073.55;1788227;79;21168;-17
2021/03/27 02:23:07;;;;;;;12.88;9.70;;;;;;;22.15;33.38;100075.23;1752453;79;20218;-15
2021/03/27 02:26:15;;;;;;;12.30;9.78;;;;;;;22.18;33.35;100072.33;1781514;79;21160;-15
2021/03/27 02:29:33;;;;;;;11.33;9.45;;;;;;;22.20;33.33;100072.22;1791410;79;21559;-18
2021/03/27 02:32:09;;;;;;;14.70;9.60;;;;;;;22.20;33.35;100073.56;1784834;79;21651;-14
2021/03/27 02:34:42;;;;;;;11.55;9.48;;;;;;;22.21;33.34;100072.11;1792674;79;21137;-14
2021/03/27 02:37:27;;;;;;;14.40;9.50;;;;;;;22.22;33.33;100073.80;1756990;80;21201;-15
2021/03/27 02:40:13;;;;;;;15.23;9.73;;;;;;;22.22;33.38;100072.45;1760447;79;21627;-19
2021/03/27 02:43:27;;;;;;;11.75;9.63;;;;;;;22.23;33.39;100072.84;1688153;81;21483;-16
2021/03/27 02:46:29;;;;;;;11.50;8.80;;;;;;;22.24;33.41;100076.37;1719520;80;21228;-16
2021/03/27 02:49:47;;;;;;;12.73;10.23;;;;;;;22.25;33.42;100075.41;1720375;80;21074;-14
2021/03/27 02:52:39;;;;;;;13.78;8.98;;;;;;;22.25;33.53;100070.05;1692761;82;21191;-14
2021/03/27 02:55:27;;;;;;;12.90;9.58;;;;;;;22.26;33.58;100066.41;1709260;82;21617;-14
2021/03/27 02:58:18;;;;;;;11.63;9.23;;;;;;;22.24;33.73;100069.20;1752031;79;21146;-14
2021/03/27 03:00:58;;;;;;;13.85;9.85;;;;;;;22.25;33.75;100072.23;1723658;81;21377;-14
2021/03/27 03:03:47;;;;;;;15.18;9.23;;;;;;;22.26;33.87;100073.11;1729335;81;21897;-14
2021/03/27 03:07:06;;;;;;;12.65;9.90;;;;;;;22.26;33.88;100079.32;1758904;78;21158;-13
2021/03/27 03:09:55;;;;;;;12.82;9.98;;;;;;;22.28;33.91;100083.72;1727141;81;21136;-14
2021/03/27 03:12:46;;;;;;;15.15;9.60;;;;;;;22.28;33.95;100083.72;1738497;78;21153;-17
2021/03/27 03:15:25;;;;;;;12.70;9.43;;;;;;;22.26;33.99;100082.00;1768271;80;21162;-14
2021/03/27 03:18:04;;;;;;;14.93;9.63;;;;;;;22.29;33.99;100088.13;1761029;79;21198;-14
2021/03/27 03:20:49;;;;;;;11.45;8.80;;;;;;;22.29;34.04;100086.78;1757305;78;21166;-15
2021/03/27 03:23:29;;;;;;;;;;;;;;;22.29;34.07;100086.78;1710866;81;21096;-15
2021/03/27 03:26:10;;;;;;;11.18;8.30;;;;;;;22.30;34.10;100085.83;1728852;80;20231;-16
2021/03/27 03:28:46;;;;;;;9.80;8.78;;;;;;;22.31;34.12;100092.88;1713751;81;21114;-14
2021/03/27 03:31:28;;;;;;;11.93;9.05;;;;;;;22.31;34.10;100092.88;1762850;78;21197;-14
2021/03/27 03:34:20;;;;;;;16.42;9.13;;;;;;;22.33;34.11;100096.33;1713315;81;21165;-14
2021/03/27 03:37:06;;;;;;;12.53;9.45;;;;;;;22.33;34.10;100096.33;1761696;78;21577;-14
2021/03/27 03:40:09;;;;;;;12.95;9.70;;;;;;;22.35;34.08;100094.38;1759535;80;21186;-14
2021/03/27 03:43:01;;;;;;;11.28;8.88;;;;;;;22.36;34.07;100093.39;1727000;78;21182;-14
2021/03/27 03:46:08;;;;;;;11.85;8.88;;;;;;;22.37;34.07;100096.45;1694578;81;21141;-15
2021/03/27 03:49:09;;;;;;;11.48;9.13;;;;;;;22.36;34.04;100089.38;1715633;81;21205;-15
2021/03/27 03:52:05;;;;;;;10.32;8.75;;;;;;;22.35;34.07;100089.87;1753846;80;21179;-16
2021/03/27 03:55:01;;;;;;;11.60;9.40;;;;;;;22.35;34.09;100093.05;1762075;78;21130;-18
2021/03/27 03:57:40;;;;;;;12.28;9.20;;;;;;;22.35;34.16;100090.36;1757399;80;22012;-18
2021/03/27 04:00:22;;;;;;;12.00;9.25;;;;;;;22.36;34.18;100093.39;1717821;80;21080;-15
2021/03/27 04:03:13;;;;;;;15.80;10.63;;;;;;;22.37;34.14;100096.45;1736763;81;21141;-16
2021/03/27 04:06:00;;;;;;;19.27;10.98;;;;;;;22.38;34.29;100102.20;1742848;80;21174;-15
2021/03/27 04:08:55;;;;;;;14.23;9.85;;;;;;;22.37;34.47;100090.60;1765648;80;21180;-15
2021/03/27 04:11:46;;;;;;;13.90;9.73;;;;;;;22.36;34.58;100097.41;1709126;82;21425;-15
2021/03/27 04:14:41;;;;;;;15.72;10.20;;;;;;;22.35;34.64;100099.74;1722914;82;21140;-15
2021/03/27 04:17:14;;;;;;;15.78;10.63;;;;;;;22.32;34.72;100097.29;1700073;79;21210;-17
2021/03/27 04:19:46;;;;;;;15.60;10.40;;;;;;;22.31;34.77;100100.92;1728206;82;21623;-15
2021/03/27 04:22:32;;;;;;;24.10;11.22;;;;;;;22.29;34.66;100098.36;1743526;80;21127;-15
2021/03/27 04:25:25;;;;;;;13.78;10.08;;;;;;;22.29;34.45;100101.53;1717815;81;21155;-18
2021/03/27 04:28:04;;;;;;;18.37;10.88;;;;;;;22.30;34.37;100104.59;1743194;81;21191;-15
2021/03/27 04:30:43;;;;;;;15.00;10.48;;;;;;;22.29;34.27;100100.19;1759820;79;21201;-18
2021/03/27 04:33:47;;;;;;;21.50;10.98;;;;;;;22.29;34.19;100100.19;1741705;81;21169;-15
2021/03/27 04:36:26;;;;;;;13.08;10.68;;;;;;;22.30;34.01;100108.62;1756609;79;21579;-17
2021/03/27 04:39:37;;;;;;;17.50;10.40;;;;;;;22.30;33.87;100109.95;1735458;80;21204;-15
2021/03/27 04:42:35;;;;;;;14.85;11.00;;;;;;;22.29;33.91;100114.44;1738314;79;21167;-15
2021/03/27 04:45:12;;;;;;;15.65;11.00;;;;;;;22.31;33.59;100113.87;1701558;82;21186;-15
2021/03/27 04:48:00;;;;;;;14.00;10.95;;;;;;;22.35;33.54;100107.78;1754617;79;22335;-15
2021/03/27 04:50:44;;;;;;;20.57;13.10;;;;;;;22.33;33.35;100115.94;1687480;83;21164;-17
2021/03/27 04:53:31;;;;;;;18.75;13.03;;;;;;;22.34;33.16;100118.13;1724225;82;21284;-15
2021/03/27 04:56:17;;;;;;;17.82;12.35;;;;;;;22.37;33.07;100121.92;1735880;82;21188;-15
2021/03/27 04:59:00;;;;;;;19.42;11.97;;;;;;;22.38;32.95;100117.80;1708469;82;21137;-15
2021/03/27 05:01:56;;;;;;;17.57;12.55;;;;;;;22.42;32.84;100123.78;1726762;82;21181;-15
2021/03/27 05:05:00;;;;;;;16.12;12.53;;;;;;;22.44;32.72;100131.22;1719771;82;21101;-16
2021/03/27 05:07:57;;;;;;;18.85;13.10;;;;;;;22.47;32.67;100130.99;1708891;82;21523;-16
2021/03/27 05:10:50;;;;;;;17.20;12.45;;;;;;;22.49;32.55;100134.41;1680161;82;20991;-15
2021/03/27 05:13:28;;;;;;;18.40;13.10;;;;;;;22.52;32.38;100137.36;1690962;82;21125;-16
2021/03/27 05:16:17;;;;;;;20.57;12.60;;;;;;;22.53;32.25;100131.89;1722042;82;21153;-15
2021/03/27 05:19:15;;;;;;;16.82;12.50;;;;;;;22.56;32.18;100138.83;1719631;80;21105;-15
2021/03/27 05:21:57;;;;;;;17.02;11.88;;;;;;;22.56;32.10;100138.37;1700626;82;21922;-15
2021/03/27 05:25:00;;;;;;;17.67;12.43;;;;;;;22.59;32.06;100139.48;1729618;82;21143;-15
2021/03/27 05:27:43;;;;;;;16.23;12.75;;;;;;;22.61;31.95;100139.34;1717596;82;21081;-15
2021/03/27 05:30:37;;;;;;;30.80;16.05;;;;;;;22.61;31.85;100138.87;1727328;82;21171;-16
2021/03/27 05:33:43;;;;;;;40.70;21.37;;;;;;;22.66;31.26;100139.00;1733940;82;21187;-14
2021/03/27 05:36:51;;;;;;;35.75;22.60;;;;;;;22.60;28.82;100137.16;1723973;82;21271;-14
2021/03/27 05:39:49;;;;;;;31.87;19.50;;;;;;;22.37;27.59;100132.66;1722266;81;21098;-13
2021/03/27 05:43:04;;;;;;;30.05;17.80;;;;;;;22.18;28.85;100142.02;1689554;82;21058;-14
2021/03/27 05:45:50;;;;;;;21.60;14.87;;;;;;;22.19;30.00;100139.72;1699204;83;21196;-15
2021/03/27 05:48:40;;;;;;;23.47;16.07;;;;;;;22.29;30.51;100143.08;1728710;80;21625;-14
2021/03/27 05:51:51;;;;;;;22.80;15.18;;;;;;;22.37;30.71;100143.38;1701690;83;21501;-15
2021/03/27 05:54:49;;;;;;;19.25;13.40;;;;;;;22.50;30.74;100146.86;1732354;82;21548;-13
2021/03/27 05:58:07;;;;;;;24.87;14.63;;;;;;;22.62;30.67;100151.30;1691056;83;21097;-14
2021/03/27 06:01:13;;;;;;;20.92;13.40;;;;;;;22.75;30.59;100146.38;1717154;82;21776;-13
2021/03/27 06:04:19;;;;;;;19.37;12.80;;;;;;;22.88;30.51;100152.98;1727572;81;21631;-15
2021/03/27 06:07:18;;;;;;;18.10;13.05;;;;;;;22.98;30.40;100150.84;1713342;82;21212;-15
2021/03/27 06:10:11;;;;;;;17.37;12.70;;;;;;;23.08;30.27;100147.00;1713871;82;21632;-14
2021/03/27 06:13:17;;;;;;;18.42;12.80;;;;;;;23.18;30.22;100147.12;1725375;82;21096;-14
2021/03/27 06:16:12;;;;;;;17.92;12.55;;;;;;;23.26;30.13;100143.86;1717026;80;21105;-16
2021/03/27 06:18:58;;;;;;;20.75;12.58;;;;;;;23.34;30.04;100144.97;1730246;82;21636;-14
2021/03/27 06:21:42;;;;;;;15.20;12.00;;;;;;;23.42;29.97;100140.81;1732258;82;21207;-14
2021/03/27 06:24:23;;;;;;;15.90;11.97;;;;;;;23.49;29.88;100142.06;1696382;83;21204;-16
2021/03/27 06:27:26;;;;;;;15.83;12.23;;;;;;;23.56;29.85;100143.28;1686692;82;21124;-14
2021/03/27 06:30:08;;;;;;;17.20;12.10;;;;;;;23.63;29.92;100149.03;1692113;82;21157;-13
2021/03/27 06:33:02;;;;;;;14.95;11.10;;;;;;;23.69;30.26;100149.39;1683671;82;21664;-15
2021/03/27 06:35:51;;;;;;;17.57;11.10;;;;;;;23.77;30.77;100146.58;1719005;82;21596;-13
2021/03/27 06:38:47;;;;;;;15.98;10.72;;;;;;;23.82;31.31;100153.81;1695774;82;21833;-14
2021/03/27 06:41:54;;;;;;;18.12;11.35;;;;;;;23.89;31.49;100153.71;1718446;82;21117;-14
2021/03/27 06:45:02;;;;;;;18.20;11.08;;;;;;;23.96;31.83;100160.30;1721861;82;21588;-14
2021/03/27 06:48:17;;;;;;;17.17;10.75;;;;;;;24.03;32.06;100162.00;1716570;82;21126;-14
2021/03/27 06:50:53;;;;;;;15.65;10.50;;;;;;;24.09;32.18;100164.17;1709779;82;21256;-14
2021/03/27 06:53:43;;;;;;;17.62;10.93;;;;;;;24.15;32.32;100164.18;1719454;82;21619;-16
2021/03/27 06:56:34;;;;;;;23.25;10.60;;;;;;;24.20;32.38;100166.00;1661113;85;21679;-14
2021/03/27 06:59:17;;;;;;;17.23;10.65;;;;;;;24.25;32.48;100166.48;1718328;82;21123;-14
2021/03/27 07:02:28;;;;;;;21.68;10.78;;;;;;;24.28;32.50;100164.89;1686936;82;21145;-14
2021/03/27 07:05:17;;;;;;;17.17;9.90;;;;;;;24.32;32.55;100162.30;1733002;81;21203;-14
2021/03/27 07:08:05;;;;;;;15.40;10.28;;;;;;;24.38;32.57;100163.66;1683132;82;21574;-17
2021/03/27 07:11:04;;;;;;;21.75;10.70;;;;;;;24.41;32.61;100166.94;1712402;81;21126;-14
2021/03/27 07:14:21;;;;;;;20.72;10.08;;;;;;;24.50;32.66;100164.47;1800734;78;22747;-16
2021/03/27 07:17:21;;;;;;;23.87;10.45;;;;;;;24.51;33.17;100170.20;1735825;81;21636;-15
2021/03/27 07:20:12;;;;;;;19.35;9.30;;;;;;;24.54;33.30;100165.91;1744388;80;21203;-14
2021/03/27 07:23:21;;;;;;;18.87;10.00;;;;;;;24.55;33.02;100166.33;1756971;80;21192;-14
2021/03/27 07:26:16;;;;;;;18.42;9.73;;;;;;;24.59;32.77;100169.11;1773643;80;21200;-14
2021/03/27 07:28:55;;;;;;;21.77;10.18;;;;;;;24.62;32.54;100163.48;1771359;80;21173;-15
2021/03/27 07:31:50;;;;;;;15.53;9.75;;;;;;;24.66;32.37;100178.38;1740343;80;21176;-15
2021/03/27 07:34:44;;;;;;;15.63;9.48;;;;;;;24.69;32.17;100174.59;1728448;80;21794;-13
2021/03/27 07:37:58;;;;;;;18.77;10.50;;;;;;;24.71;31.99;100178.84;1691770;83;21183;-15
2021/03/27 07:40:54;;;;;;;18.23;9.88;;;;;;;24.76;31.81;100175.77;1742415;81;21188;-16
2021/03/27 07:43:45;;;;;;;16.75;9.98;;;;;;;24.79;31.62;100177.71;1689028;82;21624;-15
2021/03/27 07:46:55;;;;;;;14.33;9.20;;;;;;;24.81;31.48;100182.50;1715397;82;21252;-14
2021/03/27 07:50:15;;;;;;;14.20;9.58;;;;;;;24.85;31.34;100185.28;1718772;81;21699;-17
2021/03/27 07:53:14;;;;;;;17.10;9.40;;;;;;;24.89;31.19;100183.69;1718308;81;21165;-16
2021/03/27 07:56:09;;;;;;;19.05;10.03;;;;;;;24.92;31.06;100180.73;1655616;83;21201;-14
2021/03/27 07:59:05;;;;;;;13.78;9.30;;;;;;;24.96;30.93;100187.56;1728766;81;21687;-14
2021/03/27 08:02:11;;;;;;;21.12;9.63;;;;;;;24.98;30.83;100184.23;1720223;81;21151;-14
2021/03/27 08:05:18;;;;;;;18.55;9.13;;;;;;;25.00;30.89;100178.26;1745531;81;22242;-14
2021/03/27 08:08:11;;;;;;;21.37;9.03;;;;;;;25.06;30.96;100183.60;1711953;82;21240;-14
2021/03/27 08:11:11;;;;;;;25.68;17.10;;;;;;;25.10;31.14;100183.22;1715831;82;21196;-15
2021/03/27 08:14:07;;;;;;;34.33;18.52;;;;;;;25.12;28.38;100181.75;1704146;82;21228;-15
2021/03/27 08:17:26;;;;;;;32.33;19.30;;;;;;;24.98;26.86;100181.55;1768455;80;21510;-14
2021/03/27 08:20:23;;;;;;;56.83;31.05;;;;;;;24.79;25.73;100180.41;1739271;80;22933;-14
2021/03/27 08:23:14;;;;;;;31.35;19.40;;;;;;;24.63;26.23;100175.96;1759043;80;21483;-14
2021/03/27 08:26:13;;;;;;;35.28;19.07;;;;;;;24.51;25.62;100179.61;1764810;80;21153;-13
2021/03/27 08:29:41;;;;;;;26.73;17.48;;;;;;;24.36;24.96;100177.22;1707889;82;21595;-15
2021/03/27 08:32:49;;;;;;;29.70;16.42;;;;;;;24.25;25.87;100177.23;1763484;80;21636;-14
2021/03/27 08:35:32;;;;;;;26.70;16.60;;;;;;;24.15;25.23;100174.94;1762214;80;21657;-14
2021/03/27 08:38:34;;;;;;;23.70;15.20;;;;;;;23.94;24.93;100170.32;1751671;80;21809;-14
2021/03/27 08:41:34;;;;;;;24.10;14.87;;;;;;;23.79;25.42;100175.52;1764529;80;21153;-14
2021/03/27 08:44:15;;;;;;;19.35;12.65;;;;;;;23.61;24.31;100169.79;1701726;82;21157;-13
2021/03/27 08:47:20;;;;;;;22.98;12.28;;;;;;;23.44;24.17;100164.41;1696247;83;21218;-14
2021/03/27 08:50:22;;;;;;;18.50;12.82;;;;;;;23.41;24.58;100168.66;1763157;80;21211;-13
2021/03/27 08:53:36;;;;;;;17.75;13.15;;;;;;;23.46;25.11;100163.79;1755902;80;21153;-14
2021/03/27 08:56:48;;;;;;;17.23;12.37;;;;;;;23.34;22.84;100171.81;1746895;80;21185;-14
2021/03/27 08:59:53;;;;;;;14.23;11.75;;;;;;;22.90;22.78;100168.02;1749389;80;21212;-14
2021/03/27 09:02:56;;;;;;;13.40;9.68;;;;;;;22.56;22.29;100171.02;1770983;80;21157;-14
2021/03/27 09:05:50;;;;;;;13.20;9.20;;;;;;;22.29;23.39;100164.53;1732409;80;21123;-14
2021/03/27 09:08:47;;;;;;;12.20;8.53;;;;;;;22.38;24.30;100159.84;1719638;82;21648;-14
2021/03/27 09:11:37;;;;;;;14.83;7.72;;;;;;;22.60;24.81;100162.63;1751033;80;21628;-14
2021/03/27 09:14:16;;;;;;;11.30;7.35;;;;;;;22.85;25.20;100162.14;1741755;80;21142;-15
2021/03/27 09:17:22;;;;;;;9.60;7.10;;;;;;;23.07;25.48;100161.88;1680683;83;21022;-16
2021/03/27 09:20:23;;;;;;;11.48;7.78;;;;;;;23.25;25.69;100148.84;1699450;80;21213;-14
2021/03/27 09:23:20;;;;;;;11.43;6.95;;;;;;;23.45;25.95;100152.66;1753548;80;21174;-14
2021/03/27 09:26:23;;;;;;;10.82;6.97;;;;;;;23.62;26.11;100148.19;1764833;80;21126;-14
2021/03/27 09:29:28;;;;;;;9.65;6.90;;;;;;;23.81;26.29;100152.09;1765611;80;21587;-14
2021/03/27 09:32:45;;;;;;;54.33;33.85;;;;;;;23.94;26.39;100158.23;1754535;80;21631;-14
2021/03/27 09:35:27;;;;;;;54.88;27.93;;;;;;;24.00;23.83;100161.74;1742393;80;21174;-14
2021/03/27 09:38:25;;;;;;;35.30;22.13;;;;;;;23.80;22.20;100153.05;1758363;80;21189;-14
2021/03/27 09:41:16;;;;;;;35.63;21.77;;;;;;;23.58;21.48;100156.59;1741276;80;21197;-16
2021/03/27 09:43:55;;;;;;;43.00;23.25;;;;;;;23.34;21.19;100158.39;1764221;80;21513;-15
2021/03/27 09:46:55;;;;;;;36.75;18.92;;;;;;;23.13;21.23;100157.36;1772922;80;21125;-18
2021/03/27 09:49:59;;;;;;;103.25;52.08;;;;;;;22.94;21.22;100158.74;1756161;80;21606;-14
2021/03/27 09:52:55;;;;;;;96.02;48.02;;;;;;;22.79;21.25;100162.59;1748828;80;21562;-14
2021/03/27 09:55:37;;;;;;;95.17;44.60;;;;;;;22.67;21.85;100159.50;1774038;80;21126;-14
2021/03/27 09:58:25;;;;;;;84.20;42.80;;;;;;;22.74;22.43;100154.88;1777330;80;21917;-14
2021/03/27 10:01:03;;;;;;;87.27;40.75;;;;;;;22.86;22.84;100159.80;1721311;81;21656;-16
2021/03/27 10:03:54;;;;;;;79.92;39.85;;;;;;;23.00;23.15;100156.94;1732112;82;21570;-13
2021/03/27 10:07:00;;;;;;;76.95;37.93;;;;;;;23.16;23.46;100151.77;1742666;80;21161;-13
2021/03/27 10:09:49;;;;;;;73.75;35.68;;;;;;;23.30;23.70;100156.94;1743405;80;24808;-16
2021/03/27 10:12:38;;;;;;;66.53;33.48;;;;;;;23.48;23.97;100157.80;1768177;80;21148;-15
2021/03/27 10:15:27;;;;;;;66.92;32.88;;;;;;;23.60;24.13;100152.80;1707454;82;21211;-13
2021/03/27 10:18:07;;;;;;;64.58;30.75;;;;;;;23.70;24.34;100145.74;1760050;80;21205;-14
2021/03/27 10:20:41;;;;;;;61.58;30.72;;;;;;;23.84;24.50;100147.82;1729993;80;21578;-14
2021/03/27 10:23:20;;;;;;;62.35;30.35;;;;;;;23.93;24.69;100151.12;1761915;80;21188;-16
2021/03/27 10:26:13;;;;;;;55.78;27.65;;;;;;;24.02;24.84;100142.30;1741044;80;21252;-14
2021/03/27 10:28:55;;;;;;;59.98;27.02;;;;;;;24.11;24.95;100144.27;1739044;80;21129;-14
2021/03/27 10:31:34;;;;;;;52.85;25.90;;;;;;;24.21;25.06;100148.41;1751951;80;22216;-15
2021/03/27 10:34:28;;;;;;;49.25;24.60;;;;;;;24.27;25.18;100143.00;1715777;82;21901;-14
2021/03/27 10:37:10;;;;;;;47.47;24.90;;;;;;;24.33;25.27;100139.81;1741110;80;21160;-13
2021/03/27 10:40:03;;;;;;;48.78;24.15;;;;;;;24.40;25.39;100145.05;1771174;80;21177;-14
2021/03/27 10:43:03;;;;;;;43.08;21.85;;;;;;;24.46;25.50;100148.58;1747268;80;21122;-13
2021/03/27 10:45:57;;;;;;;42.88;22.32;;;;;;;24.52;25.61;100147.20;1729583;81;21185;-14
2021/03/27 10:48:54;;;;;;;37.83;19.15;;;;;;;24.59;25.69;100146.23;1764475;80;21177;-15
2021/03/27 10:51:25;;;;;;;;;;;;;;;24.66;25.89;100138.89;1737853;80;21616;-15
2021/03/27 10:54:36;;;;;;;25.17;14.15;;;;;;;24.73;24.82;100131.16;1762994;80;20258;-18
2021/03/27 10:57:25;;;;;;;17.67;11.70;;;;;;;24.71;24.34;100127.71;1681291;83;21157;-14
2021/03/27 11:00:18;;;;;;;17.85;10.30;;;;;;;24.63;22.04;100130.22;1698091;83;21232;-14
2021/03/27 11:03:18;;;;;;;22.25;15.35;;;;;;;24.50;21.82;100125.47;1744203;80;21146;-15
2021/03/27 11:06:24;;;;;;;14.28;10.00;;;;;;;24.30;19.92;100122.59;1757128;80;21212;-14
2021/03/27 11:09:09;;;;;;;11.53;8.73;;;;;;;23.91;19.58;100126.22;1759478;80;21180;-14
2021/03/27 11:12:28;;;;;;;9.78;7.55;;;;;;;23.61;19.16;100124.97;1720043;82;21640;-14
2021/03/27 11:15:33;;;;;;;16.32;8.20;;;;;;;23.34;19.87;100124.83;1759942;80;21217;-14
2021/03/27 11:18:40;;;;;;;13.85;7.42;;;;;;;23.34;20.93;100128.86;1682976;82;21122;-12
2021/03/27 11:21:44;;;;;;;12.33;7.80;;;;;;;23.49;21.50;100125.95;1728704;82;21165;-14
2021/03/27 11:24:41;;;;;;;11.00;6.78;;;;;;;23.63;21.96;100117.64;1761222;80;21132;-15
2021/03/27 11:27:38;;;;;;;10.43;7.62;;;;;;;23.80;22.29;100115.44;1725441;82;21223;-15
2021/03/27 11:30:17;;;;;;;10.65;7.53;;;;;;;23.92;22.59;100118.50;1744626;80;22374;-15
2021/03/27 11:32:59;;;;;;;9.15;6.80;;;;;;;24.05;22.84;100120.55;1727140;80;21625;-12
2021/03/27 11:35:40;;;;;;;10.60;7.33;;;;;;;24.16;23.04;100117.01;1702639;80;21106;-12
2021/03/27 11:38:45;;;;;;;9.25;6.85;;;;;;;24.26;23.23;100115.77;1740858;80;21640;-18
2021/03/27 11:41:41;;;;;;;8.55;6.47;;;;;;;24.35;23.39;100118.18;1728148;80;21577;-14
2021/03/27 11:44:45;;;;;;;8.13;6.65;;;;;;;24.45;23.56;100112.39;1741283;80;21193;-14
2021/03/27 11:47:34;;;;;;;11.38;6.20;;;;;;;24.54;23.70;100113.45;1635344;86;21601;-14
2021/03/27 11:50:33;;;;;;;7.78;5.92;;;;;;;24.61;23.86;100110.64;1744423;80;21223;-17
2021/03/27 11:53:17;;;;;;;7.45;6.25;;;;;;;24.68;24.06;100114.55;1768757;80;21129;-14
2021/03/27 11:55:57;;;;;;;10.95;6.40;;;;;;;24.75;24.23;100115.73;1740961;80;21133;-16
2021/03/27 12:01:32;;;;;;;15.58;6.05;;;;;;;24.85;24.63;100107.73;1694943;84;21614;-14
2021/03/27 12:04:17;;;;;;;9.90;6.05;;;;;;;24.91;24.71;100107.19;1765577;80;21181;-14
2021/03/27 12:07:12;;;;;;;8.00;5.33;;;;;;;24.97;24.82;100111.21;1745427;80;21148;-16
2021/03/27 12:10:13;;;;;;;5.92;5.33;;;;;;;25.04;24.89;100108.34;1766521;80;21140;-15
2021/03/27 12:12:52;;;;;;;6.62;5.17;;;;;;;25.11;24.96;100106.82;1768180;80;21168;-15
2021/03/27 12:15:32;;;;;;;5.97;5.37;;;;;;;25.16;25.02;100106.44;1709987;82;21214;-14
2021/03/27 12:18:06;;;;;;;7.05;5.78;;;;;;;25.19;25.09;100102.98;1756341;80;21126;-14
2021/03/27 12:21:06;;;;;;;6.85;5.47;;;;;;;25.26;25.19;100107.84;1898632;73;22749;-14
2021/03/27 12:23:48;;;;;;;7.75;5.62;;;;;;;25.25;25.26;100108.81;1839996;75;21222;-14
2021/03/27 12:26:26;;;;;;;5.58;4.78;;;;;;;25.28;25.35;100101.85;1857033;74;21193;-14
2021/03/27 12:29:39;;;;;;;5.95;4.92;;;;;;;25.31;25.42;100105.63;1875910;74;21014;-14
2021/03/27 12:32:55;;;;;;;7.33;5.25;;;;;;;25.33;25.50;100103.14;1863266;74;20960;-14
2021/03/27 12:36:13;;;;;;;5.92;5.00;;;;;;;25.37;25.59;100102.41;1869985;74;21573;-15
2021/03/27 12:38:59;;;;;;;7.33;5.30;;;;;;;25.41;25.71;100093.06;1876507;74;21126;-15
2021/03/27 12:41:44;;;;;;;5.58;5.00;;;;;;;25.45;25.78;100094.48;1881287;74;21190;-15
2021/03/27 12:44:29;;;;;;;5.03;4.62;;;;;;;25.48;25.83;100096.91;1865420;74;20928;-15
2021/03/27 12:47:22;;;;;;;7.75;4.75;;;;;;;25.51;25.88;100087.22;1869709;75;21125;-18
2021/03/27 12:50:23;;;;;;;6.50;5.33;;;;;;;25.54;25.93;100087.45;1878293;74;21130;-14
2021/03/27 12:52:59;;;;;;;22.95;12.25;;;;;;;25.58;25.94;100088.37;1869835;74;21077;-13
2021/03/27 12:55:42;;;;;;;15.72;8.85;;;;;;;25.61;24.59;100091.81;1849177;75;21221;-13
2021/03/27 12:58:34;;;;;;;15.28;11.60;;;;;;;25.63;23.03;100094.70;1876267;74;21645;-14
2021/03/27 13:01:35;;;;;;;13.00;10.38;;;;;;;25.58;20.94;100099.16;1852653;74;21171;-13
2021/03/27 13:04:33;;;;;;;12.80;10.32;;;;;;;25.32;19.95;100103.31;1876749;74;21114;-14
2021/03/27 13:07:25;;;;;;;13.60;10.20;;;;;;;25.02;19.50;100090.98;1775129;76;21120;-15
2021/03/27 13:10:24;;;;;;;12.75;8.30;;;;;;;24.95;19.36;100094.31;1809359;77;21138;-13